sensor_id;sensor_type;location;lat;lon;timestamp;temperature;humidity
19168;DHT22;9716;53.114;18.040;2023-04-25T00:02:17;13.60;99.90
19168;DHT22;9716;53.114;18.040;2023-04-25T00:04:46;13.60;99.90
19168;DHT22;9716;53.114;18.040;2023-04-25T00:07:16;13.50;99.90
19168;DHT22;9716;53.114;18.040;2023-04-25T00:09:45;13.50;99.90
19168;DHT22;9716;53.114;18.040;2023-04-25T00:12:14;13.50;99.90
19168;DHT22;9716;53.114;18.040;2023-04-25T00:14:44;13.50;99.90
19168;DHT22;9716;53.114;18.040;2023-04-25T00:17:12;13.50;99.90
19168;DHT22;9716;53.114;18.040;2023-04-25T00:19:40;13.40;99.90
19168;DHT22;9716;53.114;18.040;2023-04-25T00:22:09;13.40;99.90
19168;DHT22;9716;53.114;18.040;2023-04-25T00:24:38;13.40;99.90
19168;DHT22;9716;53.114;18.040;2023-04-25T00:27:06;13.40;99.90
19168;DHT22;9716;53.114;18.040;2023-04-25T00:29:36;13.40;99.90
19168;DHT22;9716;53.114;18.040;2023-04-25T00:32:04;13.30;99.90
19168;DHT22;9716;53.114;18.040;2023-04-25T00:34:33;13.30;99.90
19168;DHT22;9716;53.114;18.040;2023-04-25T00:37:01;13.30;99.90
19168;DHT22;9716;53.114;18.040;2023-04-25T00:39:30;13.30;99.90
19168;DHT22;9716;53.114;18.040;2023-04-25T00:41:59;13.20;99.90
19168;DHT22;9716;53.114;18.040;2023-04-25T00:44:29;13.20;99.90
19168;DHT22;9716;53.114;18.040;2023-04-25T00:47:01;13.20;99.90
19168;DHT22;9716;53.114;18.040;2023-04-25T00:49:31;13.20;99.90
19168;DHT22;9716;53.114;18.040;2023-04-25T00:51:59;13.10;99.90
19168;DHT22;9716;53.114;18.040;2023-04-25T00:54:28;13.10;99.90
19168;DHT22;9716;53.114;18.040;2023-04-25T00:56:57;13.10;99.90
19168;DHT22;9716;53.114;18.040;2023-04-25T00:59:28;13.00;99.90
19168;DHT22;9716;53.114;18.040;2023-04-25T01:01:57;13.00;99.90
19168;DHT22;9716;53.114;18.040;2023-04-25T01:04:28;13.00;99.90
19168;DHT22;9716;53.114;18.040;2023-04-25T01:06:57;13.00;99.90
19168;DHT22;9716;53.114;18.040;2023-04-25T01:09:26;12.90;99.90
19168;DHT22;9716;53.114;18.040;2023-04-25T01:11:55;12.90;99.90
19168;DHT22;9716;53.114;18.040;2023-04-25T01:14:24;12.80;99.90
19168;DHT22;9716;53.114;18.040;2023-04-25T01:16:53;12.80;99.90
19168;DHT22;9716;53.114;18.040;2023-04-25T01:19:22;12.70;99.90
19168;DHT22;9716;53.114;18.040;2023-04-25T01:21:52;12.70;99.90
19168;DHT22;9716;53.114;18.040;2023-04-25T01:24:21;12.70;99.90
19168;DHT22;9716;53.114;18.040;2023-04-25T01:26:50;12.60;99.90
19168;DHT22;9716;53.114;18.040;2023-04-25T01:29:20;12.60;99.90
19168;DHT22;9716;53.114;18.040;2023-04-25T01:31:49;12.60;99.90
19168;DHT22;9716;53.114;18.040;2023-04-25T01:34:18;12.50;99.90
19168;DHT22;9716;53.114;18.040;2023-04-25T01:36:47;12.50;99.90
19168;DHT22;9716;53.114;18.040;2023-04-25T01:39:19;12.50;99.90
19168;DHT22;9716;53.114;18.040;2023-04-25T01:41:47;12.50;99.90
19168;DHT22;9716;53.114;18.040;2023-04-25T01:44:16;12.50;99.90
19168;DHT22;9716;53.114;18.040;2023-04-25T01:46:45;12.50;99.90
19168;DHT22;9716;53.114;18.040;2023-04-25T01:49:14;12.40;99.90
19168;DHT22;9716;53.114;18.040;2023-04-25T01:51:42;12.50;99.90
19168;DHT22;9716;53.114;18.040;2023-04-25T01:54:11;12.40;99.90
19168;DHT22;9716;53.114;18.040;2023-04-25T01:56:41;12.30;99.90
19168;DHT22;9716;53.114;18.040;2023-04-25T01:59:10;12.30;99.90
19168;DHT22;9716;53.114;18.040;2023-04-25T02:01:39;12.30;99.90
19168;DHT22;9716;53.114;18.040;2023-04-25T02:04:07;12.30;99.90
19168;DHT22;9716;53.114;18.040;2023-04-25T02:06:36;12.20;99.90
19168;DHT22;9716;53.114;18.040;2023-04-25T02:09:04;12.20;99.90
19168;DHT22;9716;53.114;18.040;2023-04-25T02:11:32;12.20;99.90
19168;DHT22;9716;53.114;18.040;2023-04-25T02:14:02;12.20;99.90
19168;DHT22;9716;53.114;18.040;2023-04-25T02:16:31;12.10;99.90
19168;DHT22;9716;53.114;18.040;2023-04-25T02:18:59;12.10;99.90
19168;DHT22;9716;53.114;18.040;2023-04-25T02:21:28;12.10;99.90
19168;DHT22;9716;53.114;18.040;2023-04-25T02:23:58;12.00;99.90
19168;DHT22;9716;53.114;18.040;2023-04-25T02:26:26;11.90;99.90
19168;DHT22;9716;53.114;18.040;2023-04-25T02:28:55;11.90;99.90
19168;DHT22;9716;53.114;18.040;2023-04-25T02:31:25;11.90;99.90
19168;DHT22;9716;53.114;18.040;2023-04-25T02:33:54;11.80;99.90
19168;DHT22;9716;53.114;18.040;2023-04-25T02:36:22;11.80;99.90
19168;DHT22;9716;53.114;18.040;2023-04-25T02:38:51;11.80;99.90
19168;DHT22;9716;53.114;18.040;2023-04-25T02:41:19;11.70;99.90
19168;DHT22;9716;53.114;18.040;2023-04-25T02:43:48;11.70;99.90
19168;DHT22;9716;53.114;18.040;2023-04-25T02:46:16;11.70;99.90
19168;DHT22;9716;53.114;18.040;2023-04-25T02:48:59;11.70;99.90
19168;DHT22;9716;53.114;18.040;2023-04-25T02:51:28;11.60;99.90
19168;DHT22;9716;53.114;18.040;2023-04-25T02:53:57;11.60;99.90
19168;DHT22;9716;53.114;18.040;2023-04-25T02:56:25;11.60;99.90
19168;DHT22;9716;53.114;18.040;2023-04-25T02:58:54;11.60;99.90
19168;DHT22;9716;53.114;18.040;2023-04-25T03:01:22;11.50;99.90
19168;DHT22;9716;53.114;18.040;2023-04-25T03:03:51;11.50;99.90
19168;DHT22;9716;53.114;18.040;2023-04-25T03:06:21;11.50;99.90
19168;DHT22;9716;53.114;18.040;2023-04-25T03:08:49;11.40;99.90
19168;DHT22;9716;53.114;18.040;2023-04-25T03:11:18;11.40;99.90
19168;DHT22;9716;53.114;18.040;2023-04-25T03:13:47;11.40;99.90
19168;DHT22;9716;53.114;18.040;2023-04-25T03:16:16;11.30;99.90
19168;DHT22;9716;53.114;18.040;2023-04-25T03:18:45;11.30;99.90
19168;DHT22;9716;53.114;18.040;2023-04-25T03:21:14;11.30;99.90
19168;DHT22;9716;53.114;18.040;2023-04-25T03:23:44;11.20;99.90
19168;DHT22;9716;53.114;18.040;2023-04-25T03:26:13;11.20;99.90
19168;DHT22;9716;53.114;18.040;2023-04-25T03:28:41;11.10;99.90
19168;DHT22;9716;53.114;18.040;2023-04-25T03:31:10;11.10;99.90
19168;DHT22;9716;53.114;18.040;2023-04-25T03:33:39;11.10;99.90
19168;DHT22;9716;53.114;18.040;2023-04-25T03:36:08;11.00;99.90
19168;DHT22;9716;53.114;18.040;2023-04-25T03:38:36;11.00;99.90
19168;DHT22;9716;53.114;18.040;2023-04-25T03:41:06;11.00;99.90
19168;DHT22;9716;53.114;18.040;2023-04-25T03:43:35;10.90;99.90
19168;DHT22;9716;53.114;18.040;2023-04-25T03:46:03;10.90;99.90
19168;DHT22;9716;53.114;18.040;2023-04-25T03:48:32;10.80;99.90
19168;DHT22;9716;53.114;18.040;2023-04-25T03:51:00;10.90;99.90
19168;DHT22;9716;53.114;18.040;2023-04-25T03:53:29;10.80;99.90
19168;DHT22;9716;53.114;18.040;2023-04-25T03:55:58;10.80;99.90
19168;DHT22;9716;53.114;18.040;2023-04-25T03:58:28;10.80;99.90
19168;DHT22;9716;53.114;18.040;2023-04-25T04:00:56;10.80;99.90
19168;DHT22;9716;53.114;18.040;2023-04-25T04:03:25;10.70;99.90
19168;DHT22;9716;53.114;18.040;2023-04-25T04:05:54;10.80;99.90
19168;DHT22;9716;53.114;18.040;2023-04-25T04:08:23;10.70;99.90
19168;DHT22;9716;53.114;18.040;2023-04-25T04:10:51;10.70;99.90
19168;DHT22;9716;53.114;18.040;2023-04-25T04:13:20;10.70;99.90
19168;DHT22;9716;53.114;18.040;2023-04-25T04:15:50;10.80;99.90
19168;DHT22;9716;53.114;18.040;2023-04-25T04:18:19;10.80;99.90
19168;DHT22;9716;53.114;18.040;2023-04-25T04:20:47;10.80;99.90
19168;DHT22;9716;53.114;18.040;2023-04-25T04:23:16;10.90;99.90
19168;DHT22;9716;53.114;18.040;2023-04-25T04:25:44;10.80;99.90
19168;DHT22;9716;53.114;18.040;2023-04-25T04:28:13;10.90;99.90
19168;DHT22;9716;53.114;18.040;2023-04-25T04:30:41;11.00;99.90
19168;DHT22;9716;53.114;18.040;2023-04-25T04:33:15;11.00;99.90
19168;DHT22;9716;53.114;18.040;2023-04-25T04:35:46;11.00;99.90
19168;DHT22;9716;53.114;18.040;2023-04-25T04:38:15;11.00;99.90
19168;DHT22;9716;53.114;18.040;2023-04-25T04:40:44;11.00;99.90
19168;DHT22;9716;53.114;18.040;2023-04-25T04:43:13;11.10;99.90
19168;DHT22;9716;53.114;18.040;2023-04-25T04:45:44;11.10;99.90
19168;DHT22;9716;53.114;18.040;2023-04-25T04:48:12;11.20;99.90
19168;DHT22;9716;53.114;18.040;2023-04-25T04:50:43;11.20;99.90
19168;DHT22;9716;53.114;18.040;2023-04-25T04:53:12;11.30;99.90
19168;DHT22;9716;53.114;18.040;2023-04-25T04:55:41;11.30;99.90
19168;DHT22;9716;53.114;18.040;2023-04-25T04:58:10;11.30;99.90
19168;DHT22;9716;53.114;18.040;2023-04-25T05:00:38;11.30;99.90
19168;DHT22;9716;53.114;18.040;2023-04-25T05:03:07;11.30;99.90
19168;DHT22;9716;53.114;18.040;2023-04-25T05:05:36;11.30;99.90
19168;DHT22;9716;53.114;18.040;2023-04-25T05:08:08;11.30;99.90
19168;DHT22;9716;53.114;18.040;2023-04-25T05:10:37;11.30;99.90
19168;DHT22;9716;53.114;18.040;2023-04-25T05:13:05;11.30;99.90
19168;DHT22;9716;53.114;18.040;2023-04-25T05:15:34;11.30;99.90
19168;DHT22;9716;53.114;18.040;2023-04-25T05:18:02;11.30;99.90
19168;DHT22;9716;53.114;18.040;2023-04-25T05:20:31;11.30;99.90
19168;DHT22;9716;53.114;18.040;2023-04-25T05:22:59;11.30;99.90
19168;DHT22;9716;53.114;18.040;2023-04-25T05:25:29;11.30;99.90
19168;DHT22;9716;53.114;18.040;2023-04-25T05:27:58;11.30;99.90
19168;DHT22;9716;53.114;18.040;2023-04-25T05:30:27;11.30;99.90
19168;DHT22;9716;53.114;18.040;2023-04-25T05:32:55;11.40;99.90
19168;DHT22;9716;53.114;18.040;2023-04-25T05:35:24;11.40;99.90
19168;DHT22;9716;53.114;18.040;2023-04-25T05:37:53;11.50;99.90
19168;DHT22;9716;53.114;18.040;2023-04-25T05:40:21;11.60;99.90
19168;DHT22;9716;53.114;18.040;2023-04-25T05:42:51;11.60;99.90
19168;DHT22;9716;53.114;18.040;2023-04-25T05:45:19;11.70;99.90
19168;DHT22;9716;53.114;18.040;2023-04-25T05:47:48;11.80;99.90
19168;DHT22;9716;53.114;18.040;2023-04-25T05:50:17;11.90;99.90
19168;DHT22;9716;53.114;18.040;2023-04-25T05:52:45;12.00;99.90
19168;DHT22;9716;53.114;18.040;2023-04-25T05:55:14;12.10;99.90
19168;DHT22;9716;53.114;18.040;2023-04-25T05:57:43;12.20;99.90
19168;DHT22;9716;53.114;18.040;2023-04-25T06:00:14;12.30;99.90
19168;DHT22;9716;53.114;18.040;2023-04-25T06:02:43;12.40;99.90
19168;DHT22;9716;53.114;18.040;2023-04-25T06:05:11;12.60;99.90
19168;DHT22;9716;53.114;18.040;2023-04-25T06:07:41;12.80;99.90
19168;DHT22;9716;53.114;18.040;2023-04-25T06:10:09;13.10;99.90
19168;DHT22;9716;53.114;18.040;2023-04-25T06:12:38;13.30;99.90
19168;DHT22;9716;53.114;18.040;2023-04-25T06:15:07;13.40;99.90
19168;DHT22;9716;53.114;18.040;2023-04-25T06:17:55;13.60;99.90
19168;DHT22;9716;53.114;18.040;2023-04-25T06:20:24;13.70;99.90
19168;DHT22;9716;53.114;18.040;2023-04-25T06:22:53;13.70;99.90
19168;DHT22;9716;53.114;18.040;2023-04-25T06:25:21;13.90;99.90
19168;DHT22;9716;53.114;18.040;2023-04-25T06:27:49;14.00;99.90
19168;DHT22;9716;53.114;18.040;2023-04-25T06:30:18;14.30;99.90
19168;DHT22;9716;53.114;18.040;2023-04-25T06:32:49;14.50;99.90
19168;DHT22;9716;53.114;18.040;2023-04-25T06:35:19;14.90;99.90
19168;DHT22;9716;53.114;18.040;2023-04-25T06:37:48;15.20;99.90
19168;DHT22;9716;53.114;18.040;2023-04-25T06:40:17;15.60;99.90
19168;DHT22;9716;53.114;18.040;2023-04-25T06:42:45;16.00;99.90
19168;DHT22;9716;53.114;18.040;2023-04-25T06:45:14;16.50;99.90
19168;DHT22;9716;53.114;18.040;2023-04-25T06:47:42;17.10;99.90
19168;DHT22;9716;53.114;18.040;2023-04-25T06:50:11;17.60;99.90
19168;DHT22;9716;53.114;18.040;2023-04-25T06:52:40;18.10;99.90
19168;DHT22;9716;53.114;18.040;2023-04-25T06:55:09;18.50;99.90
19168;DHT22;9716;53.114;18.040;2023-04-25T06:57:38;18.90;99.90
19168;DHT22;9716;53.114;18.040;2023-04-25T07:00:07;18.90;99.90
19168;DHT22;9716;53.114;18.040;2023-04-25T07:02:36;18.90;99.90
19168;DHT22;9716;53.114;18.040;2023-04-25T07:05:05;18.90;99.90
19168;DHT22;9716;53.114;18.040;2023-04-25T07:07:34;18.80;99.90
19168;DHT22;9716;53.114;18.040;2023-04-25T07:10:05;18.60;99.90
19168;DHT22;9716;53.114;18.040;2023-04-25T07:12:34;18.50;99.90
19168;DHT22;9716;53.114;18.040;2023-04-25T07:15:03;18.40;99.90
19168;DHT22;9716;53.114;18.040;2023-04-25T07:17:33;18.30;99.90
19168;DHT22;9716;53.114;18.040;2023-04-25T07:20:02;18.50;99.90
19168;DHT22;9716;53.114;18.040;2023-04-25T07:22:32;18.50;99.50
19168;DHT22;9716;53.114;18.040;2023-04-25T07:25:00;18.60;99.00
19168;DHT22;9716;53.114;18.040;2023-04-25T07:27:30;18.70;98.70
19168;DHT22;9716;53.114;18.040;2023-04-25T07:29:59;18.80;98.20
19168;DHT22;9716;53.114;18.040;2023-04-25T07:32:28;18.90;97.60
19168;DHT22;9716;53.114;18.040;2023-04-25T07:34:56;19.00;97.40
19168;DHT22;9716;53.114;18.040;2023-04-25T07:37:25;19.10;97.10
19168;DHT22;9716;53.114;18.040;2023-04-25T07:39:53;19.40;96.60
19168;DHT22;9716;53.114;18.040;2023-04-25T07:42:22;19.50;96.00
19168;DHT22;9716;53.114;18.040;2023-04-25T07:44:52;19.50;95.70
19168;DHT22;9716;53.114;18.040;2023-04-25T07:47:21;19.70;94.70
19168;DHT22;9716;53.114;18.040;2023-04-25T07:49:49;19.60;94.10
19168;DHT22;9716;53.114;18.040;2023-04-25T07:52:18;19.60;93.60
19168;DHT22;9716;53.114;18.040;2023-04-25T07:54:47;19.40;93.80
19168;DHT22;9716;53.114;18.040;2023-04-25T07:57:15;19.30;93.60
19168;DHT22;9716;53.114;18.040;2023-04-25T07:59:45;19.00;93.20
19168;DHT22;9716;53.114;18.040;2023-04-25T08:02:15;18.80;93.40
19168;DHT22;9716;53.114;18.040;2023-04-25T08:04:44;18.40;93.40
19168;DHT22;9716;53.114;18.040;2023-04-25T08:07:13;18.00;93.70
19168;DHT22;9716;53.114;18.040;2023-04-25T08:09:42;17.60;94.20
19168;DHT22;9716;53.114;18.040;2023-04-25T08:12:10;17.40;94.50
19168;DHT22;9716;53.114;18.040;2023-04-25T08:14:39;17.20;94.90
19168;DHT22;9716;53.114;18.040;2023-04-25T08:17:07;17.10;95.20
19168;DHT22;9716;53.114;18.040;2023-04-25T08:19:37;16.90;95.40
19168;DHT22;9716;53.114;18.040;2023-04-25T08:22:06;16.80;95.50
19168;DHT22;9716;53.114;18.040;2023-04-25T08:24:35;16.70;95.60
19168;DHT22;9716;53.114;18.040;2023-04-25T08:27:05;16.50;95.80
19168;DHT22;9716;53.114;18.040;2023-04-25T08:29:35;16.40;96.30
19168;DHT22;9716;53.114;18.040;2023-04-25T08:32:04;16.30;96.70
19168;DHT22;9716;53.114;18.040;2023-04-25T08:34:33;16.30;97.00
19168;DHT22;9716;53.114;18.040;2023-04-25T08:37:05;16.30;97.30
19168;DHT22;9716;53.114;18.040;2023-04-25T08:39:33;16.30;97.90
19168;DHT22;9716;53.114;18.040;2023-04-25T08:42:04;16.50;97.60
19168;DHT22;9716;53.114;18.040;2023-04-25T08:44:34;16.50;97.50
19168;DHT22;9716;53.114;18.040;2023-04-25T08:47:04;16.70;97.50
19168;DHT22;9716;53.114;18.040;2023-04-25T08:49:36;16.80;97.40
19168;DHT22;9716;53.114;18.040;2023-04-25T08:52:07;17.00;97.00
19168;DHT22;9716;53.114;18.040;2023-04-25T08:54:41;17.10;96.70
19168;DHT22;9716;53.114;18.040;2023-04-25T08:57:12;17.10;96.60
19168;DHT22;9716;53.114;18.040;2023-04-25T08:59:41;17.20;96.30
19168;DHT22;9716;53.114;18.040;2023-04-25T09:02:13;17.20;96.10
19168;DHT22;9716;53.114;18.040;2023-04-25T09:04:44;17.30;96.10
19168;DHT22;9716;53.114;18.040;2023-04-25T09:07:14;17.20;96.00
19168;DHT22;9716;53.114;18.040;2023-04-25T09:09:48;17.10;95.90
19168;DHT22;9716;53.114;18.040;2023-04-25T09:12:18;17.10;96.00
19168;DHT22;9716;53.114;18.040;2023-04-25T09:15:02;16.90;96.00
19168;DHT22;9716;53.114;18.040;2023-04-25T09:17:32;16.90;96.00
19168;DHT22;9716;53.114;18.040;2023-04-25T09:20:08;16.80;96.10
19168;DHT22;9716;53.114;18.040;2023-04-25T09:22:39;16.90;96.30
19168;DHT22;9716;53.114;18.040;2023-04-25T09:25:11;17.00;96.40
19168;DHT22;9716;53.114;18.040;2023-04-25T09:27:50;17.10;96.10
19168;DHT22;9716;53.114;18.040;2023-04-25T09:30:28;17.30;96.00
19168;DHT22;9716;53.114;18.040;2023-04-25T09:32:58;17.40;95.80
19168;DHT22;9716;53.114;18.040;2023-04-25T09:35:35;17.50;95.40
19168;DHT22;9716;53.114;18.040;2023-04-25T09:38:10;17.60;95.00
19168;DHT22;9716;53.114;18.040;2023-04-25T09:40:40;17.70;94.70
19168;DHT22;9716;53.114;18.040;2023-04-25T09:43:19;17.70;94.70
19168;DHT22;9716;53.114;18.040;2023-04-25T09:45:49;17.80;94.70
19168;DHT22;9716;53.114;18.040;2023-04-25T09:48:19;17.90;94.50
19168;DHT22;9716;53.114;18.040;2023-04-25T09:51:04;17.90;94.00
19168;DHT22;9716;53.114;18.040;2023-04-25T09:53:34;17.90;93.50
19168;DHT22;9716;53.114;18.040;2023-04-25T09:56:07;17.90;93.60
19168;DHT22;9716;53.114;18.040;2023-04-25T09:58:36;17.90;93.40
19168;DHT22;9716;53.114;18.040;2023-04-25T10:01:06;18.00;93.00
19168;DHT22;9716;53.114;18.040;2023-04-25T10:03:37;18.00;92.60
19168;DHT22;9716;53.114;18.040;2023-04-25T10:06:09;17.90;92.70
19168;DHT22;9716;53.114;18.040;2023-04-25T10:08:39;17.80;92.80
19168;DHT22;9716;53.114;18.040;2023-04-25T10:11:08;17.80;92.90
19168;DHT22;9716;53.114;18.040;2023-04-25T10:13:37;17.70;93.00
19168;DHT22;9716;53.114;18.040;2023-04-25T10:16:05;17.70;93.00
19168;DHT22;9716;53.114;18.040;2023-04-25T10:18:34;17.60;93.00
19168;DHT22;9716;53.114;18.040;2023-04-25T10:21:04;17.60;93.20
19168;DHT22;9716;53.114;18.040;2023-04-25T10:23:35;17.70;93.20
19168;DHT22;9716;53.114;18.040;2023-04-25T10:26:07;17.60;92.70
19168;DHT22;9716;53.114;18.040;2023-04-25T10:28:55;17.60;92.60
19168;DHT22;9716;53.114;18.040;2023-04-25T10:31:25;17.60;92.90
19168;DHT22;9716;53.114;18.040;2023-04-25T10:33:54;17.50;93.00
19168;DHT22;9716;53.114;18.040;2023-04-25T10:36:24;17.60;93.20
19168;DHT22;9716;53.114;18.040;2023-04-25T10:38:54;17.60;93.40
19168;DHT22;9716;53.114;18.040;2023-04-25T10:41:24;17.60;93.50
19168;DHT22;9716;53.114;18.040;2023-04-25T10:43:59;17.50;93.50
19168;DHT22;9716;53.114;18.040;2023-04-25T10:46:29;17.60;93.50
19168;DHT22;9716;53.114;18.040;2023-04-25T10:48:59;17.60;93.50
19168;DHT22;9716;53.114;18.040;2023-04-25T10:51:30;17.60;93.30
19168;DHT22;9716;53.114;18.040;2023-04-25T10:54:17;17.60;93.30
19168;DHT22;9716;53.114;18.040;2023-04-25T10:56:48;17.60;93.30
19168;DHT22;9716;53.114;18.040;2023-04-25T10:59:19;17.70;93.20
19168;DHT22;9716;53.114;18.040;2023-04-25T11:01:52;17.70;92.90
19168;DHT22;9716;53.114;18.040;2023-04-25T11:04:23;17.70;92.80
19168;DHT22;9716;53.114;18.040;2023-04-25T11:07:16;17.80;92.70
19168;DHT22;9716;53.114;18.040;2023-04-25T11:09:51;17.90;92.80
19168;DHT22;9716;53.114;18.040;2023-04-25T11:12:21;18.00;92.80
19168;DHT22;9716;53.114;18.040;2023-04-25T11:14:50;18.00;92.80
19168;DHT22;9716;53.114;18.040;2023-04-25T11:17:19;18.10;92.40
19168;DHT22;9716;53.114;18.040;2023-04-25T11:19:49;18.00;92.40
19168;DHT22;9716;53.114;18.040;2023-04-25T11:22:18;18.10;92.40
19168;DHT22;9716;53.114;18.040;2023-04-25T11:24:47;18.00;92.20
19168;DHT22;9716;53.114;18.040;2023-04-25T11:27:16;18.00;92.00
19168;DHT22;9716;53.114;18.040;2023-04-25T11:29:46;17.80;91.70
19168;DHT22;9716;53.114;18.040;2023-04-25T11:32:15;17.60;91.70
19168;DHT22;9716;53.114;18.040;2023-04-25T11:34:47;17.40;91.80
19168;DHT22;9716;53.114;18.040;2023-04-25T11:37:16;17.20;92.10
19168;DHT22;9716;53.114;18.040;2023-04-25T11:39:45;17.10;92.50
19168;DHT22;9716;53.114;18.040;2023-04-25T11:42:14;16.80;92.80
19168;DHT22;9716;53.114;18.040;2023-04-25T11:44:42;16.70;93.00
19168;DHT22;9716;53.114;18.040;2023-04-25T11:47:13;16.50;93.20
19168;DHT22;9716;53.114;18.040;2023-04-25T11:49:41;16.40;93.30
19168;DHT22;9716;53.114;18.040;2023-04-25T11:52:10;16.30;93.50
19168;DHT22;9716;53.114;18.040;2023-04-25T11:54:39;16.10;93.70
19168;DHT22;9716;53.114;18.040;2023-04-25T11:57:08;16.00;94.00
19168;DHT22;9716;53.114;18.040;2023-04-25T11:59:36;16.00;94.10
19168;DHT22;9716;53.114;18.040;2023-04-25T12:02:05;16.00;94.20
19168;DHT22;9716;53.114;18.040;2023-04-25T12:04:35;16.00;94.10
19168;DHT22;9716;53.114;18.040;2023-04-25T12:07:04;16.00;94.10
19168;DHT22;9716;53.114;18.040;2023-04-25T12:09:33;16.10;94.20
19168;DHT22;9716;53.114;18.040;2023-04-25T12:12:02;16.20;94.20
19168;DHT22;9716;53.114;18.040;2023-04-25T12:14:34;16.30;93.80
19168;DHT22;9716;53.114;18.040;2023-04-25T12:17:04;16.50;93.60
19168;DHT22;9716;53.114;18.040;2023-04-25T12:19:37;16.60;93.70
19168;DHT22;9716;53.114;18.040;2023-04-25T12:22:19;16.80;93.60
19168;DHT22;9716;53.114;18.040;2023-04-25T12:24:48;16.90;93.50
19168;DHT22;9716;53.114;18.040;2023-04-25T12:27:17;17.00;93.30
19168;DHT22;9716;53.114;18.040;2023-04-25T12:29:53;17.20;93.10
19168;DHT22;9716;53.114;18.040;2023-04-25T12:32:22;17.30;92.90
19168;DHT22;9716;53.114;18.040;2023-04-25T12:34:52;17.30;92.90
19168;DHT22;9716;53.114;18.040;2023-04-25T12:37:22;17.50;92.90
19168;DHT22;9716;53.114;18.040;2023-04-25T12:39:50;17.60;92.80
19168;DHT22;9716;53.114;18.040;2023-04-25T12:42:19;17.80;92.60
19168;DHT22;9716;53.114;18.040;2023-04-25T12:44:47;17.80;92.30
19168;DHT22;9716;53.114;18.040;2023-04-25T12:47:16;18.00;91.90
19168;DHT22;9716;53.114;18.040;2023-04-25T12:49:45;18.10;91.60
19168;DHT22;9716;53.114;18.040;2023-04-25T12:52:15;18.30;91.30
19168;DHT22;9716;53.114;18.040;2023-04-25T12:54:43;18.20;91.20
19168;DHT22;9716;53.114;18.040;2023-04-25T12:57:11;18.20;91.10
19168;DHT22;9716;53.114;18.040;2023-04-25T12:59:39;18.30;91.00
19168;DHT22;9716;53.114;18.040;2023-04-25T13:02:08;18.20;90.70
19168;DHT22;9716;53.114;18.040;2023-04-25T13:04:37;18.20;90.80
19168;DHT22;9716;53.114;18.040;2023-04-25T13:07:06;18.20;91.00
19168;DHT22;9716;53.114;18.040;2023-04-25T13:09:35;18.20;90.80
19168;DHT22;9716;53.114;18.040;2023-04-25T13:12:05;18.30;90.10
19168;DHT22;9716;53.114;18.040;2023-04-25T13:14:34;18.30;89.50
19168;DHT22;9716;53.114;18.040;2023-04-25T13:17:03;18.30;89.10
19168;DHT22;9716;53.114;18.040;2023-04-25T13:19:31;18.20;89.10
19168;DHT22;9716;53.114;18.040;2023-04-25T13:22:00;18.20;89.00
19168;DHT22;9716;53.114;18.040;2023-04-25T13:24:31;18.00;88.90
19168;DHT22;9716;53.114;18.040;2023-04-25T13:27:01;18.00;89.00
19168;DHT22;9716;53.114;18.040;2023-04-25T13:29:30;17.80;88.90
19168;DHT22;9716;53.114;18.040;2023-04-25T13:31:58;17.60;89.20
19168;DHT22;9716;53.114;18.040;2023-04-25T13:34:27;17.30;89.70
19168;DHT22;9716;53.114;18.040;2023-04-25T13:36:56;17.20;90.00
19168;DHT22;9716;53.114;18.040;2023-04-25T13:39:24;17.00;90.10
19168;DHT22;9716;53.114;18.040;2023-04-25T13:41:53;16.80;90.30
19168;DHT22;9716;53.114;18.040;2023-04-25T13:44:24;16.60;91.10
19168;DHT22;9716;53.114;18.040;2023-04-25T13:46:52;16.50;91.00
19168;DHT22;9716;53.114;18.040;2023-04-25T13:49:21;16.30;91.20
19168;DHT22;9716;53.114;18.040;2023-04-25T13:51:50;16.20;91.50
19168;DHT22;9716;53.114;18.040;2023-04-25T13:54:18;16.10;91.70
19168;DHT22;9716;53.114;18.040;2023-04-25T13:56:47;16.00;91.80
19168;DHT22;9716;53.114;18.040;2023-04-25T13:59:16;16.00;92.00
19168;DHT22;9716;53.114;18.040;2023-04-25T14:01:46;16.00;92.20
19168;DHT22;9716;53.114;18.040;2023-04-25T14:04:14;16.10;92.40
19168;DHT22;9716;53.114;18.040;2023-04-25T14:06:43;16.30;92.60
19168;DHT22;9716;53.114;18.040;2023-04-25T14:09:11;16.40;92.60
19168;DHT22;9716;53.114;18.040;2023-04-25T14:11:40;16.50;92.60
19168;DHT22;9716;53.114;18.040;2023-04-25T14:14:09;16.70;92.60
19168;DHT22;9716;53.114;18.040;2023-04-25T14:16:38;16.70;92.50
19168;DHT22;9716;53.114;18.040;2023-04-25T14:19:07;16.80;92.50
19168;DHT22;9716;53.114;18.040;2023-04-25T14:21:36;16.80;92.60
19168;DHT22;9716;53.114;18.040;2023-04-25T14:24:05;16.80;92.20
19168;DHT22;9716;53.114;18.040;2023-04-25T14:26:36;16.60;92.30
19168;DHT22;9716;53.114;18.040;2023-04-25T14:29:05;16.40;92.70
19168;DHT22;9716;53.114;18.040;2023-04-25T14:31:34;16.10;93.10
19168;DHT22;9716;53.114;18.040;2023-04-25T14:34:03;15.70;93.40
19168;DHT22;9716;53.114;18.040;2023-04-25T14:36:33;15.40;93.80
19168;DHT22;9716;53.114;18.040;2023-04-25T14:39:03;15.10;94.50
19168;DHT22;9716;53.114;18.040;2023-04-25T14:41:32;14.60;95.10
19168;DHT22;9716;53.114;18.040;2023-04-25T14:44:00;14.40;95.70
19168;DHT22;9716;53.114;18.040;2023-04-25T14:46:29;14.10;96.20
19168;DHT22;9716;53.114;18.040;2023-04-25T14:48:58;13.90;96.80
19168;DHT22;9716;53.114;18.040;2023-04-25T14:51:27;13.70;97.30
19168;DHT22;9716;53.114;18.040;2023-04-25T14:53:56;13.50;97.90
19168;DHT22;9716;53.114;18.040;2023-04-25T14:56:25;13.30;98.40
19168;DHT22;9716;53.114;18.040;2023-04-25T14:58:53;13.10;98.90
19168;DHT22;9716;53.114;18.040;2023-04-25T15:01:22;13.10;99.40
19168;DHT22;9716;53.114;18.040;2023-04-25T15:03:51;13.00;99.80
19168;DHT22;9716;53.114;18.040;2023-04-25T15:06:20;12.90;99.90
19168;DHT22;9716;53.114;18.040;2023-04-25T15:08:48;12.90;99.90
19168;DHT22;9716;53.114;18.040;2023-04-25T15:11:19;12.80;99.90
19168;DHT22;9716;53.114;18.040;2023-04-25T15:13:49;12.90;99.90
19168;DHT22;9716;53.114;18.040;2023-04-25T15:16:18;12.90;99.90
19168;DHT22;9716;53.114;18.040;2023-04-25T15:18:46;13.00;99.90
19168;DHT22;9716;53.114;18.040;2023-04-25T15:21:15;13.10;99.90
19168;DHT22;9716;53.114;18.040;2023-04-25T15:23:43;13.20;99.90
19168;DHT22;9716;53.114;18.040;2023-04-25T15:26:12;13.40;99.90
19168;DHT22;9716;53.114;18.040;2023-04-25T15:28:42;13.50;99.90
19168;DHT22;9716;53.114;18.040;2023-04-25T15:31:11;13.50;99.90
19168;DHT22;9716;53.114;18.040;2023-04-25T15:33:39;13.50;99.90
19168;DHT22;9716;53.114;18.040;2023-04-25T15:36:08;13.60;99.90
19168;DHT22;9716;53.114;18.040;2023-04-25T15:38:37;13.50;99.90
19168;DHT22;9716;53.114;18.040;2023-04-25T15:41:05;13.40;99.90
19168;DHT22;9716;53.114;18.040;2023-04-25T15:43:34;13.40;99.90
19168;DHT22;9716;53.114;18.040;2023-04-25T15:46:05;13.30;99.90